createdAt,value
2018-12-04T00:00:38.525Z,0.47
2018-12-04T00:03:08.081Z,0.50
2018-12-04T00:05:36.959Z,0.50
2018-12-04T00:08:05.737Z,0.57
2018-12-04T00:10:34.521Z,0.60
2018-12-04T00:13:03.388Z,0.67
2018-12-04T00:15:32.236Z,0.64
2018-12-04T00:18:01.000Z,0.62
2018-12-04T00:20:29.879Z,0.70
2018-12-04T00:22:58.656Z,0.66
2018-12-04T00:25:27.379Z,0.47
2018-12-04T00:27:56.091Z,0.36
2018-12-04T00:30:24.826Z,0.39
2018-12-04T00:32:53.640Z,0.47
2018-12-04T00:35:22.432Z,0.29
2018-12-04T00:37:51.514Z,0.35
2018-12-04T00:40:20.290Z,0.35
2018-12-04T00:42:49.198Z,0.34
2018-12-04T00:45:17.976Z,0.36
2018-12-04T00:47:46.753Z,0.45
2018-12-04T00:50:15.523Z,0.44
2018-12-04T00:52:44.337Z,0.48
2018-12-04T00:55:13.105Z,0.49
2018-12-04T00:57:41.826Z,0.40
2018-12-04T01:00:12.030Z,0.41
2018-12-04T01:02:40.760Z,0.46
2018-12-04T01:05:09.971Z,0.49
2018-12-04T01:07:38.705Z,0.38
2018-12-04T01:10:08.423Z,0.44
2018-12-04T01:12:38.068Z,0.47
2018-12-04T01:15:07.763Z,0.51
2018-12-04T01:17:36.991Z,0.51
2018-12-04T01:20:06.862Z,0.40
2018-12-04T01:22:35.630Z,0.45
2018-12-04T01:25:05.711Z,0.51
2018-12-04T01:27:34.445Z,0.62
2018-12-04T01:30:06.973Z,0.66
2018-12-04T01:32:35.737Z,0.61
2018-12-04T01:35:05.022Z,0.51
2018-12-04T01:37:33.784Z,0.60
2018-12-04T01:40:02.491Z,0.61
2018-12-04T01:42:31.242Z,0.62
2018-12-04T01:45:00.348Z,0.65
2018-12-04T01:47:29.085Z,0.71
2018-12-04T01:49:57.799Z,0.63
2018-12-04T01:52:26.561Z,0.56
2018-12-04T01:54:55.603Z,0.62
2018-12-04T01:57:24.805Z,0.60
2018-12-04T01:59:53.545Z,0.55
2018-12-04T02:02:22.294Z,0.57
2018-12-04T02:04:51.051Z,0.54
2018-12-04T02:07:19.767Z,0.60
2018-12-04T02:09:48.495Z,0.57
2018-12-04T02:12:17.205Z,0.52
2018-12-04T02:14:45.948Z,0.53
2018-12-04T02:17:14.689Z,0.62
2018-12-04T02:19:43.776Z,0.59
2018-12-04T02:22:12.495Z,0.61
2018-12-04T02:24:41.206Z,0.63
2018-12-04T02:27:09.959Z,0.60
2018-12-04T02:29:38.764Z,0.62
2018-12-04T02:32:07.494Z,0.63
2018-12-04T02:34:36.258Z,0.57
2018-12-04T02:37:05.466Z,0.62
2018-12-04T02:39:34.202Z,0.64
2018-12-04T02:42:03.013Z,0.55
2018-12-04T02:44:31.782Z,0.38
2018-12-04T02:47:00.588Z,0.37
2018-12-04T02:49:29.317Z,0.34
2018-12-04T02:51:58.040Z,0.34
2018-12-04T02:54:26.844Z,0.25
2018-12-04T02:59:29.580Z,0.29
2018-12-04T03:01:58.369Z,0.29
2018-12-04T03:04:27.065Z,0.28
2018-12-04T03:06:55.872Z,0.38
2018-12-04T03:09:24.629Z,0.45
2018-12-04T03:11:54.185Z,0.45
2018-12-04T03:14:22.951Z,0.49
2018-12-04T03:16:51.743Z,0.38
2018-12-04T03:19:20.528Z,0.27
2018-12-04T03:21:49.337Z,0.24
2018-12-04T03:24:19.081Z,0.34
2018-12-04T03:26:47.804Z,0.41
2018-12-04T03:29:16.608Z,0.38
2018-12-04T03:31:45.374Z,0.37
2018-12-04T03:34:14.128Z,0.31
2018-12-04T03:36:42.948Z,0.38
2018-12-04T03:39:11.724Z,0.42
2018-12-04T03:41:40.500Z,0.41
2018-12-04T03:44:09.243Z,0.47
2018-12-04T03:46:38.236Z,0.40
2018-12-04T03:49:07.028Z,0.40
2018-12-04T03:51:35.793Z,0.45
2018-12-04T03:54:04.537Z,0.44
2018-12-04T03:56:33.362Z,0.46
2018-12-04T03:59:02.482Z,0.52
2018-12-04T04:01:31.219Z,0.48
2018-12-04T04:03:59.979Z,0.45
2018-12-04T04:06:28.734Z,0.51
2018-12-04T04:08:57.525Z,0.42
2018-12-04T04:11:26.244Z,0.40
2018-12-04T04:13:55.025Z,0.48
2018-12-04T04:16:23.728Z,0.55
2018-12-04T04:18:52.535Z,0.59
2018-12-04T04:21:21.253Z,0.64
2018-12-04T04:23:50.324Z,0.68
2018-12-04T04:26:19.048Z,0.63
2018-12-04T04:28:47.772Z,0.58
2018-12-04T04:31:16.551Z,0.56
2018-12-04T04:33:45.310Z,0.52
2018-12-04T04:36:14.097Z,0.51
2018-12-04T04:38:42.922Z,0.46
2018-12-04T04:41:11.763Z,0.52
2018-12-04T04:43:40.540Z,0.54
2018-12-04T04:46:09.292Z,0.58
2018-12-04T04:48:38.022Z,0.60
2018-12-04T04:51:06.807Z,0.60
2018-12-04T04:53:35.558Z,0.55
2018-12-04T04:56:04.411Z,0.54
2018-12-04T04:58:33.152Z,0.58
2018-12-04T05:01:01.899Z,0.64
2018-12-04T05:03:30.621Z,0.71
2018-12-04T05:05:59.374Z,0.65
2018-12-04T05:08:28.085Z,0.67
2018-12-04T05:10:56.863Z,0.64
2018-12-04T05:13:25.698Z,0.67
2018-12-04T05:15:54.797Z,0.66
2018-12-04T05:18:23.583Z,0.75
2018-12-04T05:20:52.357Z,0.80
2018-12-04T05:23:21.105Z,0.89
2018-12-04T05:25:49.895Z,0.93
2018-12-04T05:28:18.715Z,1.00
2018-12-04T05:30:47.584Z,0.95
2018-12-04T05:33:16.346Z,0.91
2018-12-04T05:35:45.066Z,0.90
2018-12-04T05:38:13.801Z,0.88
2018-12-04T05:40:42.551Z,0.97
2018-12-04T05:43:11.258Z,0.89
2018-12-04T05:45:40.012Z,0.92
2018-12-04T05:48:08.782Z,0.97
2018-12-04T05:50:37.748Z,0.99
2018-12-04T05:53:17.600Z,0.99
2018-12-04T05:55:46.428Z,0.93
2018-12-04T05:58:15.166Z,0.92
2018-12-04T06:00:43.962Z,0.91
2018-12-04T06:03:12.681Z,0.86
2018-12-04T06:05:41.426Z,0.92
2018-12-04T06:08:10.487Z,0.94
2018-12-04T06:10:39.234Z,0.88
2018-12-04T06:13:08.469Z,0.85
2018-12-04T06:15:37.253Z,0.87
2018-12-04T06:18:06.017Z,0.90
2018-12-04T06:20:35.384Z,0.94
2018-12-04T06:23:04.509Z,0.92
2018-12-04T06:25:33.290Z,0.89
2018-12-04T06:28:01.986Z,0.89
2018-12-04T06:30:30.783Z,0.99
2018-12-04T06:32:59.520Z,1.09
2018-12-04T06:35:28.322Z,1.12
2018-12-04T06:37:57.064Z,1.16
2018-12-04T06:40:25.796Z,1.22
2018-12-04T06:42:54.557Z,1.22
2018-12-04T06:45:23.528Z,1.28
2018-12-04T06:47:52.392Z,1.17
2018-12-04T06:50:21.218Z,1.15
2018-12-04T06:52:50.100Z,1.23
2018-12-04T06:55:19.201Z,1.21
2018-12-04T06:57:57.396Z,1.25
2018-12-04T07:00:26.419Z,1.16
2018-12-04T07:02:55.289Z,1.05
2018-12-04T07:05:24.486Z,0.95
2018-12-04T07:07:54.002Z,0.93
2018-12-04T07:10:22.787Z,0.99
2018-12-04T07:12:51.529Z,1.05
2018-12-04T07:15:21.986Z,1.12
2018-12-04T07:17:51.366Z,1.25
2018-12-04T07:20:20.143Z,1.36
2018-12-04T07:22:49.038Z,1.33
2018-12-04T07:25:17.961Z,1.35
2018-12-04T07:27:49.193Z,1.35
2018-12-04T07:30:18.059Z,1.38
2018-12-04T07:32:46.907Z,1.47
2018-12-04T07:35:15.700Z,1.48
2018-12-04T07:37:44.522Z,1.57
2018-12-04T07:40:13.503Z,1.64
2018-12-04T07:42:42.453Z,1.74
2018-12-04T07:45:11.361Z,1.75
2018-12-04T07:47:40.211Z,1.83
2018-12-04T07:50:09.437Z,1.96
2018-12-04T07:52:38.218Z,1.98
2018-12-04T07:55:06.962Z,2.07
2018-12-04T07:57:35.900Z,2.20
2018-12-04T08:00:10.155Z,2.19
2018-12-04T08:02:39.265Z,2.30
2018-12-04T08:05:08.803Z,2.36
2018-12-04T08:07:37.579Z,2.45
2018-12-04T08:10:07.874Z,2.55
2018-12-04T08:12:36.747Z,2.67
2018-12-04T08:15:06.746Z,2.77
2018-12-04T08:17:36.385Z,2.72
2018-12-04T08:20:06.873Z,2.75
2018-12-04T08:22:35.913Z,2.81
2018-12-04T08:25:05.840Z,2.91
2018-12-04T08:27:37.074Z,2.97
2018-12-04T08:30:09.997Z,3.02
2018-12-04T08:32:38.946Z,3.13
2018-12-04T08:35:09.761Z,3.19
2018-12-04T08:37:38.551Z,3.19
2018-12-04T08:40:08.917Z,3.26
2018-12-04T08:42:37.732Z,3.37
2018-12-04T08:45:08.407Z,3.44
2018-12-04T08:47:37.177Z,3.55
2018-12-04T08:50:07.517Z,3.69
2018-12-04T08:52:36.250Z,3.69
2018-12-04T08:55:05.448Z,3.78
2018-12-04T08:57:34.513Z,3.84
2018-12-04T09:00:08.682Z,3.84
2018-12-04T09:02:37.459Z,3.86
2018-12-04T09:05:07.686Z,4.02
2018-12-04T09:07:36.789Z,4.06
2018-12-04T09:10:07.100Z,4.18
2018-12-04T09:12:35.829Z,4.22
2018-12-04T09:15:06.340Z,4.11
2018-12-04T09:17:35.456Z,4.13
2018-12-04T09:20:05.656Z,4.13
2018-12-04T09:22:34.754Z,4.03
2018-12-04T09:25:04.445Z,4.05
2018-12-04T09:27:33.159Z,4.04
2018-12-04T09:30:06.158Z,4.09
2018-12-04T09:32:34.895Z,4.05
2018-12-04T09:35:03.613Z,4.00
2018-12-04T09:37:32.349Z,3.86
2018-12-04T09:40:01.091Z,3.89
2018-12-04T09:42:29.919Z,4.01
2018-12-04T09:44:59.006Z,4.10
2018-12-04T09:47:27.816Z,4.01
2018-12-04T09:49:56.608Z,4.01
2018-12-04T09:52:25.406Z,4.01
2018-12-04T09:54:54.192Z,4.10
2018-12-04T09:57:22.945Z,4.11
2018-12-04T09:59:51.722Z,4.15
2018-12-04T10:02:20.447Z,4.10
2018-12-04T10:04:49.220Z,4.19
2018-12-04T10:07:18.129Z,4.26
2018-12-04T10:09:46.873Z,4.39
2018-12-04T10:12:15.684Z,4.50
2018-12-04T10:14:44.623Z,4.37
2018-12-04T10:17:13.987Z,4.58
2018-12-04T10:19:42.823Z,4.69
2018-12-04T10:22:12.287Z,4.81
2018-12-04T10:24:41.162Z,4.94
2018-12-04T10:27:10.003Z,5.09
2018-12-04T10:29:38.775Z,5.06
2018-12-04T10:32:07.554Z,5.13
2018-12-04T10:34:36.336Z,5.12
2018-12-04T10:37:05.595Z,5.09
2018-12-04T10:39:34.318Z,5.24
2018-12-04T10:42:03.088Z,5.31
2018-12-04T10:44:31.892Z,5.24
2018-12-04T10:47:00.758Z,5.35
2018-12-04T10:49:29.579Z,5.32
2018-12-04T10:51:58.390Z,5.39
2018-12-04T10:54:27.200Z,5.38
2018-12-04T10:56:56.040Z,5.45
2018-12-04T10:59:24.832Z,5.51
2018-12-04T11:01:58.940Z,5.40
2018-12-04T11:04:27.732Z,5.37
2018-12-04T11:06:57.559Z,5.42
2018-12-04T11:09:26.633Z,5.44
2018-12-04T11:11:55.562Z,5.40
2018-12-04T11:14:24.323Z,5.51
2018-12-04T11:16:53.080Z,5.49
2018-12-04T11:19:21.907Z,5.48
2018-12-04T11:21:50.837Z,5.51
2018-12-04T11:24:19.603Z,5.47
2018-12-04T11:26:48.646Z,5.40
2018-12-04T11:29:17.423Z,5.37
2018-12-04T11:31:46.481Z,5.30
2018-12-04T11:34:15.351Z,5.29
2018-12-04T11:36:44.158Z,5.22
2018-12-04T11:39:12.981Z,5.17
2018-12-04T11:41:41.738Z,5.14
2018-12-04T11:44:10.609Z,5.05
2018-12-04T11:46:39.462Z,5.15
2018-12-04T11:49:08.339Z,5.09
2018-12-04T11:51:37.142Z,5.10
2018-12-04T11:54:06.387Z,5.00
2018-12-04T11:56:35.193Z,5.01
2018-12-04T11:59:04.486Z,5.01
2018-12-04T12:01:33.286Z,5.09
2018-12-04T12:04:02.078Z,5.14
2018-12-04T12:06:30.822Z,5.27
2018-12-04T12:08:59.643Z,5.37
2018-12-04T12:11:34.625Z,5.46
2018-12-04T12:14:04.103Z,5.48
2018-12-04T12:16:32.833Z,5.46
2018-12-04T12:19:01.684Z,5.48
2018-12-04T12:21:30.442Z,5.42
2018-12-04T12:23:59.475Z,5.50
2018-12-04T12:26:28.213Z,5.67
2018-12-04T12:28:56.991Z,5.72
2018-12-04T12:31:26.118Z,5.75
2018-12-04T12:33:54.912Z,5.77
2018-12-04T12:36:23.678Z,5.80
2018-12-04T12:38:52.455Z,5.84
2018-12-04T12:41:21.690Z,5.85
2018-12-04T12:43:50.469Z,5.80
2018-12-04T12:46:19.292Z,5.72
2018-12-04T12:48:48.078Z,5.66
2018-12-04T12:51:16.853Z,5.58
2018-12-04T12:53:45.602Z,5.59
2018-12-04T12:56:14.449Z,5.57
2018-12-04T12:58:43.336Z,5.59
2018-12-04T13:01:12.146Z,5.61
2018-12-04T13:03:40.961Z,5.54
2018-12-04T13:06:09.840Z,5.52
2018-12-04T13:08:38.637Z,5.47
2018-12-04T13:11:12.790Z,5.35
2018-12-04T13:13:41.568Z,5.30
2018-12-04T13:16:11.597Z,5.38
2018-12-04T13:18:40.391Z,5.37
2018-12-04T13:21:09.223Z,5.31
2018-12-04T13:23:37.991Z,5.26
2018-12-04T13:26:06.822Z,5.19
2018-12-04T13:28:35.657Z,5.00
2018-12-04T13:31:04.450Z,4.99
2018-12-04T13:33:33.293Z,5.07
2018-12-04T13:36:02.159Z,5.14
2018-12-04T13:38:30.957Z,5.18
2018-12-04T13:40:59.753Z,5.18
2018-12-04T13:43:28.546Z,5.22
2018-12-04T13:45:57.388Z,5.21
2018-12-04T13:48:26.185Z,5.17
2018-12-04T13:50:55.095Z,5.16
2018-12-04T13:53:23.905Z,5.03
2018-12-04T13:55:52.730Z,5.05
2018-12-04T13:58:21.519Z,5.03
2018-12-04T14:00:50.305Z,4.98
2018-12-04T14:03:19.074Z,4.88
2018-12-04T14:05:47.875Z,4.86
2018-12-04T14:08:18.443Z,4.77
2018-12-04T14:10:47.308Z,4.79
2018-12-04T14:13:16.059Z,4.77
2018-12-04T14:15:45.004Z,4.69
2018-12-04T14:18:14.503Z,4.64
2018-12-04T14:20:43.533Z,4.59
2018-12-04T14:23:12.463Z,4.49
2018-12-04T14:25:42.146Z,4.56
2018-12-04T14:28:11.415Z,4.60
2018-12-04T14:30:40.507Z,4.64
2018-12-04T14:33:09.282Z,4.65
2018-12-04T14:35:38.057Z,4.72
2018-12-04T14:38:06.938Z,4.72
2018-12-04T14:40:35.719Z,4.71
2018-12-04T14:43:04.658Z,4.64
2018-12-04T14:45:33.382Z,4.64
2018-12-04T14:48:02.656Z,4.63
2018-12-04T14:50:31.491Z,4.62
2018-12-04T14:53:00.369Z,4.64
2018-12-04T14:55:29.396Z,4.63
2018-12-04T14:57:58.250Z,4.60
2018-12-04T15:00:27.199Z,4.58
2018-12-04T15:02:56.387Z,4.54
2018-12-04T15:05:25.274Z,4.53
2018-12-04T15:07:54.057Z,4.52
2018-12-04T15:10:23.002Z,4.54
2018-12-04T15:12:52.412Z,4.61
2018-12-04T15:15:21.187Z,4.62
2018-12-04T15:17:49.928Z,4.59
2018-12-04T15:20:19.355Z,4.56
2018-12-04T15:22:51.586Z,4.53
2018-12-04T15:25:20.680Z,4.47
2018-12-04T15:27:49.543Z,4.45
2018-12-04T15:30:18.526Z,4.41
2018-12-04T15:32:48.103Z,4.42
2018-12-04T15:35:17.721Z,4.46
2018-12-04T15:37:46.704Z,4.41
2018-12-04T15:40:15.606Z,4.37
2018-12-04T15:42:44.709Z,4.43
2018-12-04T15:45:14.259Z,4.38
2018-12-04T15:47:43.288Z,4.34
2018-12-04T15:50:12.326Z,4.32
2018-12-04T15:52:41.331Z,4.28
2018-12-04T15:55:11.467Z,4.26
2018-12-04T15:57:40.239Z,4.23
2018-12-04T16:00:12.002Z,4.15
2018-12-04T16:02:41.024Z,4.17
2018-12-04T16:05:10.545Z,4.17
2018-12-04T16:07:39.276Z,4.15
2018-12-04T16:10:11.219Z,4.16
2018-12-04T16:12:40.079Z,4.15
2018-12-04T16:15:09.362Z,4.17
2018-12-04T16:17:38.148Z,4.21
2018-12-04T16:20:09.490Z,4.24
2018-12-04T16:22:38.419Z,4.24
2018-12-04T16:25:08.829Z,4.25
2018-12-04T16:27:38.005Z,4.22
2018-12-04T16:30:11.600Z,4.27
2018-12-04T16:32:40.428Z,4.29
2018-12-04T16:35:09.997Z,4.32
2018-12-04T16:37:38.822Z,4.31
2018-12-04T16:40:08.842Z,4.33
2018-12-04T16:42:37.719Z,4.38
2018-12-04T16:45:07.662Z,4.36
2018-12-04T16:47:36.464Z,4.36
2018-12-04T16:50:06.611Z,4.36
2018-12-04T16:52:35.392Z,4.39
2018-12-04T16:55:04.886Z,4.35
2018-12-04T16:57:33.665Z,4.37
2018-12-04T17:00:06.741Z,4.37
2018-12-04T17:02:35.578Z,4.39
2018-12-04T17:05:05.581Z,4.36
2018-12-04T17:07:35.120Z,4.36
2018-12-04T17:10:04.717Z,4.42
2018-12-04T17:12:34.036Z,4.44
2018-12-04T17:15:03.382Z,4.49
2018-12-04T17:17:32.463Z,4.46
2018-12-04T17:20:01.814Z,4.41
2018-12-04T17:22:30.549Z,4.44
2018-12-04T17:24:59.411Z,4.50
2018-12-04T17:27:28.275Z,4.51
2018-12-04T17:29:57.166Z,4.53
2018-12-04T17:32:26.619Z,4.56
2018-12-04T17:34:55.400Z,4.48
2018-12-04T17:37:24.529Z,4.52
2018-12-04T17:39:54.169Z,4.53
2018-12-04T17:42:23.263Z,4.63
2018-12-04T17:44:52.170Z,4.60
2018-12-04T17:47:21.002Z,4.58
2018-12-04T17:49:49.938Z,4.49
2018-12-04T17:52:19.075Z,4.47
2018-12-04T17:54:47.953Z,4.36
2018-12-04T17:57:16.855Z,4.40
2018-12-04T17:59:45.754Z,4.45
2018-12-04T18:02:14.599Z,4.44
2018-12-04T18:04:43.592Z,4.36
2018-12-04T18:07:12.482Z,4.32
2018-12-04T18:09:41.376Z,4.33
2018-12-04T18:12:10.288Z,4.35
2018-12-04T18:14:39.320Z,4.30
2018-12-04T18:17:08.764Z,4.32
2018-12-04T18:19:37.762Z,4.33
2018-12-04T18:22:06.716Z,4.27
2018-12-04T18:24:35.595Z,4.23
2018-12-04T18:27:05.267Z,4.27
2018-12-04T18:29:35.401Z,4.29
2018-12-04T18:32:05.576Z,4.32
2018-12-04T18:34:34.476Z,4.33
2018-12-04T18:37:03.391Z,4.33
2018-12-04T18:39:32.491Z,4.16
2018-12-04T18:42:01.707Z,4.11
2018-12-04T18:44:30.644Z,4.16
2018-12-04T18:46:59.466Z,4.09
2018-12-04T18:49:29.386Z,4.16
2018-12-04T18:51:58.204Z,4.18
2018-12-04T18:54:29.209Z,4.17
2018-12-04T18:56:58.174Z,4.13
2018-12-04T18:59:27.320Z,4.19
2018-12-04T19:01:56.158Z,4.20
2018-12-04T19:04:25.039Z,4.12
2018-12-04T19:06:53.914Z,4.02
2018-12-04T19:09:22.738Z,3.91
2018-12-04T19:11:51.828Z,3.93
2018-12-04T19:14:20.609Z,3.94
2018-12-04T19:16:49.452Z,3.98
2018-12-04T19:19:18.592Z,4.07
2018-12-04T19:21:47.878Z,4.10
2018-12-04T19:24:16.928Z,4.22
2018-12-04T19:26:46.153Z,4.27
2018-12-04T19:29:15.615Z,4.29
2018-12-04T19:31:44.472Z,4.33
2018-12-04T19:34:13.543Z,4.42
2018-12-04T19:36:42.567Z,4.38
2018-12-04T19:39:11.785Z,4.31
2018-12-04T19:41:40.581Z,4.36
2018-12-04T19:44:09.830Z,4.42
2018-12-04T19:46:44.889Z,4.42
2018-12-04T19:49:13.939Z,4.48
2018-12-04T19:51:42.916Z,4.56
2018-12-04T19:54:12.160Z,4.57
2018-12-04T19:56:40.896Z,4.57
2018-12-04T19:59:09.731Z,4.59
2018-12-04T20:01:38.688Z,4.54
2018-12-04T20:04:07.867Z,4.61
2018-12-04T20:06:36.769Z,4.59
2018-12-04T20:09:09.400Z,4.63
2018-12-04T20:11:38.227Z,4.61
2018-12-04T20:14:07.458Z,4.64
2018-12-04T20:16:36.222Z,4.68
2018-12-04T20:19:05.022Z,4.71
2018-12-04T20:21:34.094Z,4.66
2018-12-04T20:24:02.912Z,4.59
2018-12-04T20:26:31.722Z,4.57
2018-12-04T20:29:00.541Z,4.55
2018-12-04T20:31:29.340Z,4.61
2018-12-04T20:33:58.074Z,4.65
2018-12-04T20:36:26.948Z,4.67
2018-12-04T20:38:56.140Z,4.65
2018-12-04T20:41:24.951Z,4.60
2018-12-04T20:43:53.729Z,4.63
2018-12-04T20:46:22.857Z,4.66
2018-12-04T20:48:51.687Z,4.62
2018-12-04T20:51:20.448Z,4.64
2018-12-04T20:53:49.227Z,4.64
2018-12-04T20:56:18.646Z,4.61
2018-12-04T20:58:47.483Z,4.48
2018-12-04T21:01:16.297Z,4.48
2018-12-04T21:03:45.063Z,4.43
2018-12-04T21:06:13.846Z,4.48
2018-12-04T21:08:42.669Z,4.39
2018-12-04T21:11:11.367Z,4.34
2018-12-04T21:13:40.142Z,4.36
2018-12-04T21:16:08.892Z,4.42
2018-12-04T21:18:38.107Z,4.44
2018-12-04T21:21:06.935Z,4.44
2018-12-04T21:23:35.695Z,4.47
2018-12-04T21:26:04.480Z,4.52
2018-12-04T21:28:33.196Z,4.50
2018-12-04T21:31:07.317Z,4.53
2018-12-04T21:33:41.460Z,4.49
2018-12-04T21:36:15.549Z,4.50
2018-12-04T21:38:49.527Z,4.46
2018-12-04T21:41:23.525Z,4.50
2018-12-04T21:43:57.460Z,4.55
2018-12-04T21:46:31.380Z,4.55
2018-12-04T21:49:00.697Z,4.54
2018-12-04T21:51:29.487Z,4.58
2018-12-04T21:53:58.222Z,4.52
2018-12-04T21:56:27.568Z,4.51
2018-12-04T21:58:56.327Z,4.50
2018-12-04T22:01:25.073Z,4.48
2018-12-04T22:03:53.805Z,4.40
2018-12-04T22:06:22.611Z,4.43
2018-12-04T22:08:51.357Z,4.54
2018-12-04T22:11:20.090Z,4.59
2018-12-04T22:13:48.953Z,4.60
2018-12-04T22:16:17.735Z,4.54
2018-12-04T22:18:46.813Z,4.57
2018-12-04T22:21:15.575Z,4.61
2018-12-04T22:23:44.353Z,4.69
2018-12-04T22:26:13.160Z,4.72
2018-12-04T22:28:42.327Z,4.63
2018-12-04T22:31:11.062Z,4.63
2018-12-04T22:33:39.773Z,4.73
2018-12-04T22:36:08.555Z,4.78
2018-12-04T22:38:37.342Z,4.72
2018-12-04T22:41:06.119Z,4.80
2018-12-04T22:43:35.225Z,4.77
2018-12-04T22:46:04.048Z,4.77
2018-12-04T22:48:32.815Z,4.81
2018-12-04T22:51:01.580Z,4.77
2018-12-04T22:53:30.395Z,4.77
2018-12-04T22:55:59.549Z,4.80
2018-12-04T22:58:28.385Z,4.87
2018-12-04T23:00:58.073Z,4.92
2018-12-04T23:03:26.817Z,4.88
2018-12-04T23:05:55.572Z,4.82
2018-12-04T23:08:24.380Z,4.85
2018-12-04T23:10:53.156Z,4.80
2018-12-04T23:13:22.553Z,4.78
2018-12-04T23:15:57.585Z,4.69
2018-12-04T23:18:26.314Z,4.74
2018-12-04T23:20:55.083Z,4.83
2018-12-04T23:23:24.139Z,4.80
2018-12-04T23:25:53.020Z,4.77
2018-12-04T23:28:21.781Z,4.77
2018-12-04T23:30:50.540Z,4.78
2018-12-04T23:33:19.410Z,4.83
2018-12-04T23:35:48.229Z,4.85
2018-12-04T23:38:17.004Z,4.88
2018-12-04T23:40:45.885Z,4.92
2018-12-04T23:43:14.764Z,4.93
2018-12-04T23:45:43.470Z,4.84
2018-12-04T23:48:12.192Z,4.84
2018-12-04T23:50:40.927Z,4.81
2018-12-04T23:53:09.656Z,4.81
2018-12-04T23:55:38.373Z,4.80
2018-12-04T23:58:07.125Z,4.78
